sensor_id;sensor_type;location;lat;lon;timestamp;P1;durP1;ratioP1;P2;durP2;ratioP2
80119;SDS011;69425;55.040;82.918;2023-06-04T00:03:20;39.25;;;19.50;;
80119;SDS011;69425;55.040;82.918;2023-06-04T00:08:21;35.35;;;18.45;;
80119;SDS011;69425;55.040;82.918;2023-06-04T00:13:23;39.05;;;21.55;;
80119;SDS011;69425;55.040;82.918;2023-06-04T00:18:25;37.78;;;19.52;;
80119;SDS011;69425;55.040;82.918;2023-06-04T00:23:27;40.20;;;19.45;;
80119;SDS011;69425;55.040;82.918;2023-06-04T00:28:28;31.30;;;19.50;;
80119;SDS011;69425;55.040;82.918;2023-06-04T00:33:30;39.10;;;20.13;;
80119;SDS011;69425;55.040;82.918;2023-06-04T00:38:32;30.83;;;19.08;;
80119;SDS011;69425;55.040;82.918;2023-06-04T00:43:33;32.55;;;20.15;;
80119;SDS011;69425;55.040;82.918;2023-06-04T00:48:36;36.50;;;19.55;;
80119;SDS011;69425;55.040;82.918;2023-06-04T00:53:37;36.05;;;19.13;;
80119;SDS011;69425;55.040;82.918;2023-06-04T00:58:38;30.70;;;18.85;;
80119;SDS011;69425;55.040;82.918;2023-06-04T01:03:41;33.05;;;19.80;;
80119;SDS011;69425;55.040;82.918;2023-06-04T01:08:43;31.88;;;19.63;;
80119;SDS011;69425;55.040;82.918;2023-06-04T01:13:45;30.83;;;18.70;;
80119;SDS011;69425;55.040;82.918;2023-06-04T01:18:47;26.73;;;18.65;;
80119;SDS011;69425;55.040;82.918;2023-06-04T01:23:49;32.90;;;18.60;;
80119;SDS011;69425;55.040;82.918;2023-06-04T01:28:51;30.85;;;17.65;;
80119;SDS011;69425;55.040;82.918;2023-06-04T01:33:54;38.78;;;19.83;;
80119;SDS011;69425;55.040;82.918;2023-06-04T01:38:56;28.80;;;18.88;;
80119;SDS011;69425;55.040;82.918;2023-06-04T01:43:57;33.00;;;19.45;;
80119;SDS011;69425;55.040;82.918;2023-06-04T01:49:00;39.03;;;21.85;;
80119;SDS011;69425;55.040;82.918;2023-06-04T01:54:01;36.92;;;22.65;;
80119;SDS011;69425;55.040;82.918;2023-06-04T01:59:02;36.30;;;22.70;;
80119;SDS011;69425;55.040;82.918;2023-06-04T02:04:05;40.08;;;24.60;;
80119;SDS011;69425;55.040;82.918;2023-06-04T02:09:06;38.63;;;25.25;;
80119;SDS011;69425;55.040;82.918;2023-06-04T02:14:07;38.88;;;25.23;;
80119;SDS011;69425;55.040;82.918;2023-06-04T02:19:10;45.38;;;26.05;;
80119;SDS011;69425;55.040;82.918;2023-06-04T02:24:11;45.92;;;26.00;;
80119;SDS011;69425;55.040;82.918;2023-06-04T02:29:12;36.65;;;22.45;;
80119;SDS011;69425;55.040;82.918;2023-06-04T02:34:15;41.92;;;24.30;;
80119;SDS011;69425;55.040;82.918;2023-06-04T02:39:18;48.97;;;27.00;;
80119;SDS011;69425;55.040;82.918;2023-06-04T02:44:19;33.95;;;22.67;;
80119;SDS011;69425;55.040;82.918;2023-06-04T02:49:22;36.38;;;22.40;;
80119;SDS011;69425;55.040;82.918;2023-06-04T02:54:23;30.77;;;20.95;;
80119;SDS011;69425;55.040;82.918;2023-06-04T02:59:24;33.60;;;21.25;;
80119;SDS011;69425;55.040;82.918;2023-06-04T03:04:27;30.85;;;19.50;;
80119;SDS011;69425;55.040;82.918;2023-06-04T03:09:28;36.50;;;19.48;;
80119;SDS011;69425;55.040;82.918;2023-06-04T03:14:31;31.33;;;19.65;;
80119;SDS011;69425;55.040;82.918;2023-06-04T03:19:35;33.53;;;18.90;;
80119;SDS011;69425;55.040;82.918;2023-06-04T03:24:37;28.02;;;14.32;;
80119;SDS011;69425;55.040;82.918;2023-06-04T03:29:39;24.55;;;13.77;;
80119;SDS011;69425;55.040;82.918;2023-06-04T03:34:42;16.08;;;11.55;;
80119;SDS011;69425;55.040;82.918;2023-06-04T03:39:43;20.83;;;12.77;;
80119;SDS011;69425;55.040;82.918;2023-06-04T03:44:44;22.60;;;12.93;;
80119;SDS011;69425;55.040;82.918;2023-06-04T03:49:47;20.38;;;13.65;;
80119;SDS011;69425;55.040;82.918;2023-06-04T03:54:48;20.73;;;10.93;;
80119;SDS011;69425;55.040;82.918;2023-06-04T03:59:49;21.27;;;13.77;;
80119;SDS011;69425;55.040;82.918;2023-06-04T04:04:52;21.67;;;13.63;;
80119;SDS011;69425;55.040;82.918;2023-06-04T04:09:53;23.02;;;14.55;;
80119;SDS011;69425;55.040;82.918;2023-06-04T04:14:55;26.23;;;18.42;;
80119;SDS011;69425;55.040;82.918;2023-06-04T04:19:57;23.25;;;15.70;;
80119;SDS011;69425;55.040;82.918;2023-06-04T04:24:58;30.02;;;15.73;;
80119;SDS011;69425;55.040;82.918;2023-06-04T04:30:00;23.70;;;14.57;;
80119;SDS011;69425;55.040;82.918;2023-06-04T04:35:03;26.45;;;12.90;;
80119;SDS011;69425;55.040;82.918;2023-06-04T04:40:06;22.90;;;11.30;;
80119;SDS011;69425;55.040;82.918;2023-06-04T04:45:09;17.77;;;10.43;;
80119;SDS011;69425;55.040;82.918;2023-06-04T04:50:12;15.65;;;11.90;;
80119;SDS011;69425;55.040;82.918;2023-06-04T04:55:13;14.88;;;12.23;;
80119;SDS011;69425;55.040;82.918;2023-06-04T05:00:15;20.48;;;14.68;;
80119;SDS011;69425;55.040;82.918;2023-06-04T05:05:18;20.10;;;13.88;;
80119;SDS011;69425;55.040;82.918;2023-06-04T05:10:19;19.27;;;13.88;;
80119;SDS011;69425;55.040;82.918;2023-06-04T05:15:20;20.63;;;13.95;;
80119;SDS011;69425;55.040;82.918;2023-06-04T05:20:23;18.52;;;13.73;;
80119;SDS011;69425;55.040;82.918;2023-06-04T05:25:24;18.02;;;13.70;;
80119;SDS011;69425;55.040;82.918;2023-06-04T05:30:26;19.40;;;12.75;;
80119;SDS011;69425;55.040;82.918;2023-06-04T05:35:28;18.42;;;13.38;;
80119;SDS011;69425;55.040;82.918;2023-06-04T05:40:30;17.33;;;11.25;;
80119;SDS011;69425;55.040;82.918;2023-06-04T05:45:31;17.67;;;10.65;;
80119;SDS011;69425;55.040;82.918;2023-06-04T05:50:34;14.85;;;10.80;;
80119;SDS011;69425;55.040;82.918;2023-06-04T05:55:35;14.30;;;11.35;;
80119;SDS011;69425;55.040;82.918;2023-06-04T06:00:36;14.55;;;10.73;;
80119;SDS011;69425;55.040;82.918;2023-06-04T06:05:39;11.98;;;9.75;;
80119;SDS011;69425;55.040;82.918;2023-06-04T06:10:40;16.00;;;9.90;;
80119;SDS011;69425;55.040;82.918;2023-06-04T06:15:41;12.65;;;8.65;;
80119;SDS011;69425;55.040;82.918;2023-06-04T06:20:44;10.98;;;8.57;;
80119;SDS011;69425;55.040;82.918;2023-06-04T06:25:45;12.85;;;9.85;;
80119;SDS011;69425;55.040;82.918;2023-06-04T06:30:46;11.18;;;8.80;;
80119;SDS011;69425;55.040;82.918;2023-06-04T06:35:49;11.15;;;8.57;;
80119;SDS011;69425;55.040;82.918;2023-06-04T06:40:50;13.20;;;8.40;;
80119;SDS011;69425;55.040;82.918;2023-06-04T06:45:52;16.45;;;9.55;;
80119;SDS011;69425;55.040;82.918;2023-06-04T06:50:54;13.15;;;9.13;;
80119;SDS011;69425;55.040;82.918;2023-06-04T06:55:56;12.50;;;9.40;;
80119;SDS011;69425;55.040;82.918;2023-06-04T07:00:57;14.65;;;9.35;;
80119;SDS011;69425;55.040;82.918;2023-06-04T07:06:00;15.63;;;10.30;;
80119;SDS011;69425;55.040;82.918;2023-06-04T07:11:01;17.48;;;9.15;;
80119;SDS011;69425;55.040;82.918;2023-06-04T07:16:03;11.73;;;8.57;;
80119;SDS011;69425;55.040;82.918;2023-06-04T07:21:06;9.90;;;7.15;;
80119;SDS011;69425;55.040;82.918;2023-06-04T07:26:07;10.85;;;8.10;;
80119;SDS011;69425;55.040;82.918;2023-06-04T07:31:08;12.40;;;8.52;;
80119;SDS011;69425;55.040;82.918;2023-06-04T07:36:12;13.32;;;8.57;;
80119;SDS011;69425;55.040;82.918;2023-06-04T07:41:13;12.18;;;7.68;;
80119;SDS011;69425;55.040;82.918;2023-06-04T07:46:14;14.40;;;8.57;;
80119;SDS011;69425;55.040;82.918;2023-06-04T07:51:17;14.23;;;8.75;;
80119;SDS011;69425;55.040;82.918;2023-06-04T07:56:18;10.68;;;8.32;;
80119;SDS011;69425;55.040;82.918;2023-06-04T08:01:19;11.10;;;8.70;;
80119;SDS011;69425;55.040;82.918;2023-06-04T08:06:22;12.00;;;8.35;;
80119;SDS011;69425;55.040;82.918;2023-06-04T08:11:23;10.57;;;8.63;;
80119;SDS011;69425;55.040;82.918;2023-06-04T08:16:24;14.48;;;8.82;;
80119;SDS011;69425;55.040;82.918;2023-06-04T08:21:43;15.38;;;8.63;;
80119;SDS011;69425;55.040;82.918;2023-06-04T08:26:48;8.93;;;7.70;;
80119;SDS011;69425;55.040;82.918;2023-06-04T08:31:56;11.48;;;9.00;;
80119;SDS011;69425;55.040;82.918;2023-06-04T08:37:05;11.35;;;8.68;;
80119;SDS011;69425;55.040;82.918;2023-06-04T08:42:06;9.70;;;7.88;;
80119;SDS011;69425;55.040;82.918;2023-06-04T08:47:08;10.00;;;7.57;;
80119;SDS011;69425;55.040;82.918;2023-06-04T08:52:10;11.68;;;8.07;;
80119;SDS011;69425;55.040;82.918;2023-06-04T08:57:12;10.65;;;8.00;;
80119;SDS011;69425;55.040;82.918;2023-06-04T09:02:13;11.93;;;7.50;;
80119;SDS011;69425;55.040;82.918;2023-06-04T09:07:16;12.32;;;7.95;;
80119;SDS011;69425;55.040;82.918;2023-06-04T09:12:21;11.40;;;8.95;;
80119;SDS011;69425;55.040;82.918;2023-06-04T09:17:24;11.15;;;7.72;;
80119;SDS011;69425;55.040;82.918;2023-06-04T09:22:33;10.60;;;7.95;;
80119;SDS011;69425;55.040;82.918;2023-06-04T09:27:37;12.02;;;7.72;;
80119;SDS011;69425;55.040;82.918;2023-06-04T09:32:39;10.82;;;7.70;;
80119;SDS011;69425;55.040;82.918;2023-06-04T09:37:42;13.30;;;8.77;;
80119;SDS011;69425;55.040;82.918;2023-06-04T09:42:44;11.48;;;8.65;;
80119;SDS011;69425;55.040;82.918;2023-06-04T09:47:46;13.20;;;8.30;;
80119;SDS011;69425;55.040;82.918;2023-06-04T09:52:49;12.40;;;8.63;;
80119;SDS011;69425;55.040;82.918;2023-06-04T09:57:50;12.02;;;8.00;;
80119;SDS011;69425;55.040;82.918;2023-06-04T10:02:55;13.57;;;8.00;;
80119;SDS011;69425;55.040;82.918;2023-06-04T10:07:58;12.90;;;8.35;;
80119;SDS011;69425;55.040;82.918;2023-06-04T10:13:04;10.82;;;7.95;;
80119;SDS011;69425;55.040;82.918;2023-06-04T10:18:06;12.57;;;8.50;;
80119;SDS011;69425;55.040;82.918;2023-06-04T10:23:09;12.23;;;7.68;;
80119;SDS011;69425;55.040;82.918;2023-06-04T10:28:10;12.32;;;7.60;;
80119;SDS011;69425;55.040;82.918;2023-06-04T10:33:12;11.20;;;7.90;;
80119;SDS011;69425;55.040;82.918;2023-06-04T10:38:15;11.75;;;8.00;;
80119;SDS011;69425;55.040;82.918;2023-06-04T10:43:16;10.63;;;7.43;;
80119;SDS011;69425;55.040;82.918;2023-06-04T10:48:17;10.25;;;7.30;;
80119;SDS011;69425;55.040;82.918;2023-06-04T10:53:20;11.82;;;7.45;;
80119;SDS011;69425;55.040;82.918;2023-06-04T10:58:31;11.63;;;7.68;;
80119;SDS011;69425;55.040;82.918;2023-06-04T11:03:35;11.50;;;8.10;;
80119;SDS011;69425;55.040;82.918;2023-06-04T11:08:38;13.50;;;8.05;;
80119;SDS011;69425;55.040;82.918;2023-06-04T11:13:40;13.43;;;8.45;;
80119;SDS011;69425;55.040;82.918;2023-06-04T11:18:42;12.35;;;7.57;;
80119;SDS011;69425;55.040;82.918;2023-06-04T11:23:44;13.95;;;7.63;;
80119;SDS011;69425;55.040;82.918;2023-06-04T11:28:48;11.70;;;7.43;;
80119;SDS011;69425;55.040;82.918;2023-06-04T11:33:49;10.35;;;7.78;;
80119;SDS011;69425;55.040;82.918;2023-06-04T11:38:56;10.68;;;7.90;;
80119;SDS011;69425;55.040;82.918;2023-06-04T11:44:00;12.48;;;8.07;;
80119;SDS011;69425;55.040;82.918;2023-06-04T11:49:02;12.10;;;7.72;;
80119;SDS011;69425;55.040;82.918;2023-06-04T11:54:05;12.68;;;8.00;;
80119;SDS011;69425;55.040;82.918;2023-06-04T11:59:06;12.40;;;8.30;;
80119;SDS011;69425;55.040;82.918;2023-06-04T12:04:14;11.20;;;7.53;;
80119;SDS011;69425;55.040;82.918;2023-06-04T12:09:21;12.88;;;7.70;;
80119;SDS011;69425;55.040;82.918;2023-06-04T12:14:22;14.77;;;8.82;;
80119;SDS011;69425;55.040;82.918;2023-06-04T12:19:23;13.60;;;8.77;;
80119;SDS011;69425;55.040;82.918;2023-06-04T12:24:26;16.95;;;9.13;;
80119;SDS011;69425;55.040;82.918;2023-06-04T12:29:28;11.77;;;8.05;;
80119;SDS011;69425;55.040;82.918;2023-06-04T12:34:29;13.88;;;7.75;;
80119;SDS011;69425;55.040;82.918;2023-06-04T12:39:32;12.30;;;8.00;;
80119;SDS011;69425;55.040;82.918;2023-06-04T12:44:33;12.20;;;7.95;;
80119;SDS011;69425;55.040;82.918;2023-06-04T12:49:34;12.82;;;7.32;;
80119;SDS011;69425;55.040;82.918;2023-06-04T12:54:37;10.93;;;7.30;;
80119;SDS011;69425;55.040;82.918;2023-06-04T12:59:38;14.32;;;8.15;;
80119;SDS011;69425;55.040;82.918;2023-06-04T13:04:39;14.50;;;8.63;;
80119;SDS011;69425;55.040;82.918;2023-06-04T13:09:42;10.07;;;7.53;;
80119;SDS011;69425;55.040;82.918;2023-06-04T13:14:43;12.07;;;7.78;;
80119;SDS011;69425;55.040;82.918;2023-06-04T13:19:44;14.27;;;8.50;;
80119;SDS011;69425;55.040;82.918;2023-06-04T13:24:47;11.98;;;8.65;;
80119;SDS011;69425;55.040;82.918;2023-06-04T13:29:48;10.48;;;8.05;;
80119;SDS011;69425;55.040;82.918;2023-06-04T13:34:49;10.60;;;8.10;;
80119;SDS011;69425;55.040;82.918;2023-06-04T13:39:52;11.40;;;7.88;;
80119;SDS011;69425;55.040;82.918;2023-06-04T13:44:53;18.52;;;8.40;;
80119;SDS011;69425;55.040;82.918;2023-06-04T13:49:54;13.52;;;8.15;;
80119;SDS011;69425;55.040;82.918;2023-06-04T13:54:57;16.05;;;9.88;;
80119;SDS011;69425;55.040;82.918;2023-06-04T13:59:58;25.33;;;9.70;;
80119;SDS011;69425;55.040;82.918;2023-06-04T14:04:59;15.13;;;8.70;;
80119;SDS011;69425;55.040;82.918;2023-06-04T14:10:02;14.95;;;8.70;;
80119;SDS011;69425;55.040;82.918;2023-06-04T14:15:05;20.45;;;13.75;;
80119;SDS011;69425;55.040;82.918;2023-06-04T14:20:07;13.80;;;9.05;;
80119;SDS011;69425;55.040;82.918;2023-06-04T14:25:10;12.07;;;8.98;;
80119;SDS011;69425;55.040;82.918;2023-06-04T14:30:12;12.07;;;8.13;;
80119;SDS011;69425;55.040;82.918;2023-06-04T14:35:13;14.70;;;9.93;;
80119;SDS011;69425;55.040;82.918;2023-06-04T14:40:16;13.25;;;9.23;;
80119;SDS011;69425;55.040;82.918;2023-06-04T14:45:17;12.88;;;8.25;;
80119;SDS011;69425;55.040;82.918;2023-06-04T14:50:19;13.90;;;8.52;;
80119;SDS011;69425;55.040;82.918;2023-06-04T14:55:21;14.48;;;9.00;;
80119;SDS011;69425;55.040;82.918;2023-06-04T15:00:23;13.45;;;8.43;;
80119;SDS011;69425;55.040;82.918;2023-06-04T15:05:24;17.05;;;9.27;;
80119;SDS011;69425;55.040;82.918;2023-06-04T15:10:27;16.08;;;9.77;;
80119;SDS011;69425;55.040;82.918;2023-06-04T15:15:28;15.23;;;9.13;;
80119;SDS011;69425;55.040;82.918;2023-06-04T15:20:29;18.33;;;9.88;;
80119;SDS011;69425;55.040;82.918;2023-06-04T15:25:32;13.25;;;8.65;;
80119;SDS011;69425;55.040;82.918;2023-06-04T15:30:33;17.38;;;8.73;;
80119;SDS011;69425;55.040;82.918;2023-06-04T15:35:34;11.02;;;8.18;;
80119;SDS011;69425;55.040;82.918;2023-06-04T15:40:37;15.30;;;9.73;;
80119;SDS011;69425;55.040;82.918;2023-06-04T15:45:38;19.17;;;9.63;;
80119;SDS011;69425;55.040;82.918;2023-06-04T15:50:39;14.57;;;10.38;;
80119;SDS011;69425;55.040;82.918;2023-06-04T15:55:42;16.92;;;10.35;;
80119;SDS011;69425;55.040;82.918;2023-06-04T16:00:43;14.77;;;9.45;;
80119;SDS011;69425;55.040;82.918;2023-06-04T16:05:44;14.65;;;9.63;;
80119;SDS011;69425;55.040;82.918;2023-06-04T16:10:47;14.18;;;9.68;;
80119;SDS011;69425;55.040;82.918;2023-06-04T16:15:48;17.55;;;10.57;;
80119;SDS011;69425;55.040;82.918;2023-06-04T16:20:50;17.08;;;10.80;;
80119;SDS011;69425;55.040;82.918;2023-06-04T16:25:54;19.45;;;9.20;;
80119;SDS011;69425;55.040;82.918;2023-06-04T16:30:55;14.93;;;10.25;;
80119;SDS011;69425;55.040;82.918;2023-06-04T16:35:56;15.45;;;9.73;;
80119;SDS011;69425;55.040;82.918;2023-06-04T16:40:59;19.83;;;10.90;;
80119;SDS011;69425;55.040;82.918;2023-06-04T16:46:01;18.85;;;10.80;;
80119;SDS011;69425;55.040;82.918;2023-06-04T16:51:02;19.55;;;12.63;;
80119;SDS011;69425;55.040;82.918;2023-06-04T16:56:05;21.35;;;12.38;;
80119;SDS011;69425;55.040;82.918;2023-06-04T17:01:06;16.65;;;11.50;;
80119;SDS011;69425;55.040;82.918;2023-06-04T17:06:07;22.83;;;11.90;;
80119;SDS011;69425;55.040;82.918;2023-06-04T17:11:10;23.75;;;12.18;;
80119;SDS011;69425;55.040;82.918;2023-06-04T17:16:11;21.17;;;12.93;;
80119;SDS011;69425;55.040;82.918;2023-06-04T17:21:12;25.25;;;14.27;;
80119;SDS011;69425;55.040;82.918;2023-06-04T17:26:15;31.92;;;14.50;;
80119;SDS011;69425;55.040;82.918;2023-06-04T17:31:16;29.52;;;13.73;;
80119;SDS011;69425;55.040;82.918;2023-06-04T17:36:18;30.00;;;16.33;;
80119;SDS011;69425;55.040;82.918;2023-06-04T17:41:22;30.85;;;15.40;;
80119;SDS011;69425;55.040;82.918;2023-06-04T17:46:23;31.65;;;16.52;;
80119;SDS011;69425;55.040;82.918;2023-06-04T17:51:24;30.75;;;17.13;;
80119;SDS011;69425;55.040;82.918;2023-06-04T17:56:27;36.38;;;18.73;;
80119;SDS011;69425;55.040;82.918;2023-06-04T18:01:28;37.90;;;19.45;;
80119;SDS011;69425;55.040;82.918;2023-06-04T18:06:29;33.00;;;19.55;;
80119;SDS011;69425;55.040;82.918;2023-06-04T18:11:32;36.42;;;19.63;;
80119;SDS011;69425;55.040;82.918;2023-06-04T18:16:33;24.10;;;15.80;;
80119;SDS011;69425;55.040;82.918;2023-06-04T18:21:34;34.08;;;18.02;;
80119;SDS011;69425;55.040;82.918;2023-06-04T18:26:37;26.35;;;16.48;;
80119;SDS011;69425;55.040;82.918;2023-06-04T18:31:38;26.10;;;15.43;;
80119;SDS011;69425;55.040;82.918;2023-06-04T18:36:39;23.42;;;15.15;;
80119;SDS011;69425;55.040;82.918;2023-06-04T18:41:42;22.95;;;14.90;;
80119;SDS011;69425;55.040;82.918;2023-06-04T18:46:43;23.65;;;14.63;;
80119;SDS011;69425;55.040;82.918;2023-06-04T18:51:44;22.88;;;15.48;;
80119;SDS011;69425;55.040;82.918;2023-06-04T18:56:47;22.05;;;13.95;;
80119;SDS011;69425;55.040;82.918;2023-06-04T19:01:48;24.65;;;13.52;;
80119;SDS011;69425;55.040;82.918;2023-06-04T19:06:49;24.17;;;14.00;;
80119;SDS011;69425;55.040;82.918;2023-06-04T19:11:52;23.45;;;14.15;;
80119;SDS011;69425;55.040;82.918;2023-06-04T19:16:53;21.30;;;14.27;;
80119;SDS011;69425;55.040;82.918;2023-06-04T19:21:55;22.23;;;13.40;;
80119;SDS011;69425;55.040;82.918;2023-06-04T19:26:57;20.42;;;14.23;;
80119;SDS011;69425;55.040;82.918;2023-06-04T19:31:58;20.90;;;13.48;;
80119;SDS011;69425;55.040;82.918;2023-06-04T19:36:59;22.73;;;14.63;;
80119;SDS011;69425;55.040;82.918;2023-06-04T19:42:02;20.10;;;12.88;;
80119;SDS011;69425;55.040;82.918;2023-06-04T19:47:04;20.58;;;13.27;;
80119;SDS011;69425;55.040;82.918;2023-06-04T19:52:05;21.75;;;12.93;;
80119;SDS011;69425;55.040;82.918;2023-06-04T19:57:08;22.38;;;13.18;;
80119;SDS011;69425;55.040;82.918;2023-06-04T20:02:09;26.90;;;12.80;;
80119;SDS011;69425;55.040;82.918;2023-06-04T20:07:10;19.25;;;13.07;;
80119;SDS011;69425;55.040;82.918;2023-06-04T20:12:13;18.65;;;11.73;;
80119;SDS011;69425;55.040;82.918;2023-06-04T20:17:14;19.25;;;12.35;;
80119;SDS011;69425;55.040;82.918;2023-06-04T20:22:16;17.42;;;12.50;;
80119;SDS011;69425;55.040;82.918;2023-06-04T20:27:18;17.58;;;11.50;;
80119;SDS011;69425;55.040;82.918;2023-06-04T20:32:19;19.83;;;12.07;;
80119;SDS011;69425;55.040;82.918;2023-06-04T20:37:21;26.65;;;11.63;;
80119;SDS011;69425;55.040;82.918;2023-06-04T20:42:23;19.10;;;11.60;;
80119;SDS011;69425;55.040;82.918;2023-06-04T20:47:25;18.15;;;10.68;;
80119;SDS011;69425;55.040;82.918;2023-06-04T20:52:26;18.42;;;11.20;;
80119;SDS011;69425;55.040;82.918;2023-06-04T20:57:29;22.27;;;12.13;;
80119;SDS011;69425;55.040;82.918;2023-06-04T21:02:30;26.50;;;12.48;;
80119;SDS011;69425;55.040;82.918;2023-06-04T21:07:31;16.52;;;11.05;;
80119;SDS011;69425;55.040;82.918;2023-06-04T21:12:33;15.65;;;10.98;;
80119;SDS011;69425;55.040;82.918;2023-06-04T21:17:35;16.58;;;10.68;;
80119;SDS011;69425;55.040;82.918;2023-06-04T21:22:36;21.25;;;10.77;;
80119;SDS011;69425;55.040;82.918;2023-06-04T21:27:39;19.38;;;11.50;;
80119;SDS011;69425;55.040;82.918;2023-06-04T21:32:40;18.05;;;10.73;;
80119;SDS011;69425;55.040;82.918;2023-06-04T21:37:41;18.85;;;10.95;;
80119;SDS011;69425;55.040;82.918;2023-06-04T21:42:44;17.48;;;10.43;;
80119;SDS011;69425;55.040;82.918;2023-06-04T21:47:45;20.38;;;10.43;;
80119;SDS011;69425;55.040;82.918;2023-06-04T21:52:46;20.52;;;10.23;;
80119;SDS011;69425;55.040;82.918;2023-06-04T21:57:49;19.85;;;11.15;;
80119;SDS011;69425;55.040;82.918;2023-06-04T22:02:50;18.52;;;10.85;;
80119;SDS011;69425;55.040;82.918;2023-06-04T22:07:51;21.27;;;10.60;;
80119;SDS011;69425;55.040;82.918;2023-06-04T22:12:54;20.90;;;10.98;;
80119;SDS011;69425;55.040;82.918;2023-06-04T22:17:55;17.55;;;11.30;;
80119;SDS011;69425;55.040;82.918;2023-06-04T22:22:56;18.83;;;10.43;;
80119;SDS011;69425;55.040;82.918;2023-06-04T22:27:59;25.27;;;11.73;;
80119;SDS011;69425;55.040;82.918;2023-06-04T22:33:00;16.25;;;10.73;;
80119;SDS011;69425;55.040;82.918;2023-06-04T22:38:01;23.58;;;11.27;;
80119;SDS011;69425;55.040;82.918;2023-06-04T22:43:04;18.15;;;10.48;;
80119;SDS011;69425;55.040;82.918;2023-06-04T22:48:05;18.17;;;10.80;;
80119;SDS011;69425;55.040;82.918;2023-06-04T22:53:06;19.88;;;10.30;;
80119;SDS011;69425;55.040;82.918;2023-06-04T22:58:09;19.08;;;10.45;;
80119;SDS011;69425;55.040;82.918;2023-06-04T23:03:10;23.15;;;11.32;;
80119;SDS011;69425;55.040;82.918;2023-06-04T23:08:11;19.65;;;9.90;;
80119;SDS011;69425;55.040;82.918;2023-06-04T23:13:14;17.42;;;9.90;;
80119;SDS011;69425;55.040;82.918;2023-06-04T23:18:16;13.82;;;10.32;;
80119;SDS011;69425;55.040;82.918;2023-06-04T23:23:17;20.58;;;10.43;;
80119;SDS011;69425;55.040;82.918;2023-06-04T23:28:20;19.10;;;10.43;;
80119;SDS011;69425;55.040;82.918;2023-06-04T23:33:21;14.55;;;10.77;;
80119;SDS011;69425;55.040;82.918;2023-06-04T23:38:22;21.27;;;11.00;;
80119;SDS011;69425;55.040;82.918;2023-06-04T23:43:25;15.93;;;9.32;;
80119;SDS011;69425;55.040;82.918;2023-06-04T23:48:26;15.73;;;10.00;;
80119;SDS011;69425;55.040;82.918;2023-06-04T23:53:27;18.92;;;10.32;;
80119;SDS011;69425;55.040;82.918;2023-06-04T23:58:30;20.33;;;10.63;;
